Time;durP1;ratioP1;P1;durP2;ratioP2;P2;SDS_P1;SDS_P2;PMS_P1;PMS_P2;Temp;Humidity;BMP_temperature;BMP_pressure;BME280_temperature;BME280_humidity;BME280_pressure;Samples;Min_cycle;Max_cycle;Signal;HPM_P1;HPM_P2
2021/06/30 00:00:59;;;;;;;33.22;27.98;;;;;;;;;;5053018;28;20117;-63
2021/06/30 00:03:25;;;;;;;34.28;27.92;;;;;;;;;;5034914;28;20029;-62
2021/06/30 00:05:51;;;;;;;36.33;28.67;;;;;;;;;;5034786;28;20424;-63
2021/06/30 00:08:17;;;;;;;36.55;29.42;;;;;;;;;;5052747;28;20055;-63
2021/06/30 00:10:43;;;;;;;35.05;28.70;;;;;;;;;;5052864;28;20056;-63
2021/06/30 00:13:12;;;;;;;35.55;28.17;;;;;;;;;;5052791;28;20449;-63
2021/06/30 00:15:40;;;;;;;32.90;26.67;;;;;;;;;;5052353;28;20075;-62
2021/06/30 00:18:06;;;;;;;31.90;26.08;;;;;;;;;;5034618;28;20506;-62
2021/06/30 00:20:34;;;;;;;33.33;27.02;;;;;;;;;;5052662;28;20025;-59
2021/06/30 00:23:00;;;;;;;34.30;27.08;;;;;;;;;;5052626;28;20021;-61
2021/06/30 00:25:26;;;;;;;34.90;27.83;;;;;;;;;;5052561;28;20037;-62
2021/06/30 00:27:52;;;;;;;32.30;26.63;;;;;;;;;;5034509;28;20074;-63
2021/06/30 00:30:18;;;;;;;41.47;27.33;;;;;;;;;;5052855;28;20465;-62
2021/06/30 00:32:45;;;;;;;35.80;27.25;;;;;;;;;;5052334;28;20021;-62
2021/06/30 00:35:15;;;;;;;35.45;27.15;;;;;;;;;;5052172;28;20028;-61
2021/06/30 00:37:41;;;;;;;31.95;26.98;;;;;;;;;;5052612;28;20029;-62
2021/06/30 00:40:07;;;;;;;31.85;27.00;;;;;;;;;;5052433;28;20028;-60
2021/06/30 00:42:33;;;;;;;33.05;26.00;;;;;;;;;;5052098;28;20053;-62
2021/06/30 00:44:59;;;;;;;32.17;25.77;;;;;;;;;;5035521;28;20087;-61
2021/06/30 00:47:25;;;;;;;32.38;25.60;;;;;;;;;;5052178;28;20032;-62
2021/06/30 00:49:52;;;;;;;31.90;25.40;;;;;;;;;;5034311;28;20025;-62
2021/06/30 00:52:18;;;;;;;33.53;26.52;;;;;;;;;;5052243;28;20025;-60
2021/06/30 00:54:44;;;;;;;33.88;26.75;;;;;;;;;;5051655;28;20057;-61
2021/06/30 00:57:10;;;;;;;35.33;27.42;;;;;;;;;;5051892;28;20021;-62
2021/06/30 00:59:37;;;;;;;33.28;25.83;;;;;;;;;;5051945;28;20366;-62
2021/06/30 01:02:03;;;;;;;34.15;27.10;;;;;;;;;;5051914;28;20099;-61
2021/06/30 01:04:29;;;;;;;32.13;26.42;;;;;;;;;;5051593;28;20029;-62
2021/06/30 01:06:55;;;;;;;33.70;27.27;;;;;;;;;;5051726;28;20052;-63
2021/06/30 01:09:21;;;;;;;31.08;25.27;;;;;;;;;;5051791;28;20039;-62
2021/06/30 01:11:48;;;;;;;30.35;25.13;;;;;;;;;;5033998;28;20013;-62
2021/06/30 01:14:23;;;;;;;32.75;25.77;;;;;;;;;;5051610;28;20100;-61
2021/06/30 01:16:51;;;;;;;35.38;26.80;;;;;;;;;;5034024;28;20404;-62
2021/06/30 01:19:19;;;;;;;30.27;25.98;;;;;;;;;;5034162;28;20029;-62
2021/06/30 01:21:45;;;;;;;31.73;25.17;;;;;;;;;;5052449;28;20411;-63
2021/06/30 01:24:11;;;;;;;31.42;25.20;;;;;;;;;;5033769;28;20083;-62
2021/06/30 01:26:37;;;;;;;34.45;25.35;;;;;;;;;;5051567;28;20080;-62
2021/06/30 01:29:03;;;;;;;30.95;24.45;;;;;;;;;;5051525;28;20469;-62
2021/06/30 01:31:29;;;;;;;34.65;26.73;;;;;;;;;;5033777;28;20444;-62
2021/06/30 01:33:55;;;;;;;33.03;27.33;;;;;;;;;;5033803;28;20029;-63
2021/06/30 01:36:21;;;;;;;31.25;27.70;;;;;;;;;;5051357;28;20028;-62
2021/06/30 01:38:47;;;;;;;38.70;26.13;;;;;;;;;;5033958;28;20036;-62
2021/06/30 01:41:14;;;;;;;32.35;25.63;;;;;;;;;;5051620;28;20112;-61
2021/06/30 01:43:41;;;;;;;29.98;25.05;;;;;;;;;;5051387;28;20032;-60
2021/06/30 01:46:07;;;;;;;33.85;27.05;;;;;;;;;;5051582;28;20431;-62
2021/06/30 01:48:33;;;;;;;33.72;25.98;;;;;;;;;;5051451;28;20029;-62
2021/06/30 01:51:00;;;;;;;29.73;24.73;;;;;;;;;;5051506;28;20028;-60
2021/06/30 01:53:26;;;;;;;30.80;25.02;;;;;;;;;;5033680;28;20048;-62
2021/06/30 01:55:52;;;;;;;28.38;23.60;;;;;;;;;;5051318;28;20066;-62
2021/06/30 01:58:19;;;;;;;29.70;23.83;;;;;;;;;;5033614;28;20025;-62
2021/06/30 02:00:49;;;;;;;28.85;23.88;;;;;;;;;;5051467;28;20459;-62
2021/06/30 02:03:15;;;;;;;27.83;23.00;;;;;;;;;;5051269;28;20507;-62
2021/06/30 02:05:41;;;;;;;30.05;24.05;;;;;;;;;;5051195;28;20025;-62
2021/06/30 02:08:07;;;;;;;27.50;23.10;;;;;;;;;;5033232;28;20021;-62
2021/06/30 02:10:33;;;;;;;27.00;23.90;;;;;;;;;;5051311;28;20056;-60
2021/06/30 02:12:59;;;;;;;29.38;24.90;;;;;;;;;;5051184;28;20029;-61
2021/06/30 02:15:27;;;;;;;29.20;23.88;;;;;;;;;;5051079;28;20044;-63
2021/06/30 02:17:54;;;;;;;29.98;23.40;;;;;;;;;;5051386;28;20025;-62
2021/06/30 02:20:20;;;;;;;29.25;23.88;;;;;;;;;;5033673;28;20047;-62
2021/06/30 02:22:46;;;;;;;29.05;23.63;;;;;;;;;;5050987;28;20057;-62
2021/06/30 02:25:14;;;;;;;28.88;24.27;;;;;;;;;;5033166;28;20025;-62
2021/06/30 02:27:41;;;;;;;29.75;23.98;;;;;;;;;;5054118;28;20028;-62
2021/06/30 02:30:08;;;;;;;29.30;23.83;;;;;;;;;;5036810;28;20028;-62
2021/06/30 02:32:34;;;;;;;26.97;23.03;;;;;;;;;;5054489;28;20043;-61
2021/06/30 02:35:01;;;;;;;30.08;24.77;;;;;;;;;;5054506;28;20267;-62
2021/06/30 02:37:26;;;;;;;26.17;23.27;;;;;;;;;;5054554;28;20025;-61
2021/06/30 02:39:53;;;;;;;26.92;22.30;;;;;;;;;;5036716;28;20496;-62
2021/06/30 02:42:19;;;;;;;26.35;22.20;;;;;;;;;;5054615;28;20029;-62
2021/06/30 02:44:45;;;;;;;26.83;22.30;;;;;;;;;;5055964;28;20508;-63
2021/06/30 02:47:11;;;;;;;25.95;21.95;;;;;;;;;;5056067;28;20029;-62
2021/06/30 02:49:37;;;;;;;29.08;21.88;;;;;;;;;;5054432;28;20397;-62
2021/06/30 02:52:03;;;;;;;23.70;20.80;;;;;;;;;;5036457;28;20025;-62
2021/06/30 02:54:29;;;;;;;26.15;22.17;;;;;;;;;;5053831;28;20055;-62
2021/06/30 02:56:55;;;;;;;24.33;20.75;;;;;;;;;;5036162;28;20029;-62
2021/06/30 02:59:21;;;;;;;25.48;21.70;;;;;;;;;;5054212;28;20028;-62
2021/06/30 03:01:47;;;;;;;27.27;22.65;;;;;;;;;;5053437;28;20052;-62
2021/06/30 03:04:13;;;;;;;25.23;21.58;;;;;;;;;;5053729;28;20468;-62
2021/06/30 03:06:39;;;;;;;24.30;21.00;;;;;;;;;;5053938;28;20078;-62
2021/06/30 03:09:05;;;;;;;25.13;21.73;;;;;;;;;;5036351;28;20021;-62
2021/06/30 03:11:31;;;;;;;26.50;21.55;;;;;;;;;;5036314;28;20447;-62
2021/06/30 03:13:57;;;;;;;25.27;22.40;;;;;;;;;;5053782;28;20029;-62
2021/06/30 03:16:23;;;;;;;26.38;21.88;;;;;;;;;;5053568;28;20029;-62
2021/06/30 03:18:49;;;;;;;25.50;21.35;;;;;;;;;;5053801;28;20032;-62
2021/06/30 03:21:15;;;;;;;24.10;20.75;;;;;;;;;;5053719;28;20021;-62
2021/06/30 03:23:41;;;;;;;26.42;21.63;;;;;;;;;;5053981;28;20025;-63
2021/06/30 03:26:07;;;;;;;24.50;21.05;;;;;;;;;;5053372;28;20106;-63
2021/06/30 03:28:33;;;;;;;27.27;20.17;;;;;;;;;;5036412;28;20036;-62
2021/06/30 03:30:59;;;;;;;25.05;20.65;;;;;;;;;;5036189;28;20608;-62
2021/06/30 03:33:25;;;;;;;23.92;20.38;;;;;;;;;;5053354;28;20032;-62
2021/06/30 03:35:50;;;;;;;25.45;20.58;;;;;;;;;;5053164;28;20447;-62
2021/06/30 03:38:16;;;;;;;23.85;20.73;;;;;;;;;;5052514;28;20037;-61
2021/06/30 03:40:42;;;;;;;24.65;20.45;;;;;;;;;;5035851;28;20103;-59
2021/06/30 03:43:08;;;;;;;22.98;19.55;;;;;;;;;;5053267;28;20033;-59
2021/06/30 03:45:34;;;;;;;25.98;21.25;;;;;;;;;;5052809;28;20101;-61
2021/06/30 03:48:00;;;;;;;25.40;20.70;;;;;;;;;;5053061;28;20075;-60
2021/06/30 03:50:26;;;;;;;31.98;20.95;;;;;;;;;;5053090;28;20023;-61
2021/06/30 03:52:52;;;;;;;27.45;21.67;;;;;;;;;;5053310;28;20457;-63
2021/06/30 03:55:18;;;;;;;27.40;21.27;;;;;;;;;;5034913;28;20021;-63
2021/06/30 03:57:44;;;;;;;24.75;21.13;;;;;;;;;;5035019;28;20033;-63
2021/06/30 04:00:11;;;;;;;27.15;21.95;;;;;;;;;;5035048;28;20445;-63
2021/06/30 04:02:36;;;;;;;25.15;20.98;;;;;;;;;;5052753;28;20048;-63
2021/06/30 04:05:03;;;;;;;23.88;20.95;;;;;;;;;;5034589;28;20370;-62
2021/06/30 04:07:29;;;;;;;26.65;22.85;;;;;;;;;;5052323;28;20048;-63
2021/06/30 04:09:54;;;;;;;29.17;22.77;;;;;;;;;;5052688;28;20550;-63
2021/06/30 04:12:21;;;;;;;26.55;22.10;;;;;;;;;;5052704;28;20044;-63
2021/06/30 04:14:47;;;;;;;27.02;22.13;;;;;;;;;;5052316;28;20400;-63
2021/06/30 04:17:13;;;;;;;25.80;22.50;;;;;;;;;;5034672;28;20123;-63
2021/06/30 04:19:39;;;;;;;27.23;22.77;;;;;;;;;;5051862;28;20053;-63
2021/06/30 04:22:05;;;;;;;26.25;21.70;;;;;;;;;;5034160;28;20391;-63
2021/06/30 04:24:31;;;;;;;24.52;21.77;;;;;;;;;;5034349;28;20032;-63
2021/06/30 04:26:57;;;;;;;27.45;22.00;;;;;;;;;;5034533;28;20111;-62
2021/06/30 04:29:23;;;;;;;30.48;23.40;;;;;;;;;;5052371;28;20400;-62
2021/06/30 04:31:49;;;;;;;25.48;22.08;;;;;;;;;;5034108;28;20051;-61
2021/06/30 04:34:15;;;;;;;27.00;22.02;;;;;;;;;;5051406;28;20028;-62
2021/06/30 04:36:41;;;;;;;26.55;22.13;;;;;;;;;;5033650;28;20127;-62
2021/06/30 04:39:07;;;;;;;29.17;21.88;;;;;;;;;;5051553;28;20021;-61
2021/06/30 04:41:33;;;;;;;27.50;21.80;;;;;;;;;;5034164;28;20029;-61
2021/06/30 04:43:59;;;;;;;26.27;23.45;;;;;;;;;;5051905;28;20041;-61
2021/06/30 04:46:25;;;;;;;26.65;21.40;;;;;;;;;;5051503;28;20032;-61
2021/06/30 04:48:51;;;;;;;24.98;21.20;;;;;;;;;;5051249;28;20087;-62
2021/06/30 04:51:17;;;;;;;29.08;20.67;;;;;;;;;;5051704;28;20036;-62
2021/06/30 04:53:46;;;;;;;25.42;21.27;;;;;;;;;;5051695;28;20477;-61
2021/06/30 04:56:12;;;;;;;27.83;21.60;;;;;;;;;;5051946;28;20033;-62
2021/06/30 04:58:38;;;;;;;27.73;21.83;;;;;;;;;;5033769;28;20425;-60
2021/06/30 05:01:04;;;;;;;29.55;22.63;;;;;;;;;;5051393;28;20031;-62
2021/06/30 05:03:30;;;;;;;27.17;21.08;;;;;;;;;;5051402;28;20366;-61
2021/06/30 05:05:56;;;;;;;25.25;20.67;;;;;;;;;;5051495;28;20036;-62
2021/06/30 05:08:23;;;;;;;23.70;21.13;;;;;;;;;;5033793;28;20459;-61
2021/06/30 05:10:49;;;;;;;29.33;21.70;;;;;;;;;;5051888;28;20021;-62
2021/06/30 05:13:15;;;;;;;26.30;22.27;;;;;;;;;;5051805;28;20501;-62
2021/06/30 05:15:41;;;;;;;27.25;21.55;;;;;;;;;;5051071;28;20052;-62
2021/06/30 05:18:07;;;;;;;26.42;21.42;;;;;;;;;;5033322;28;20067;-66
2021/06/30 05:20:33;;;;;;;25.25;20.77;;;;;;;;;;5051165;28;20052;-62
2021/06/30 05:22:59;;;;;;;26.45;22.30;;;;;;;;;;5051092;28;20489;-62
2021/06/30 05:25:25;;;;;;;26.15;22.38;;;;;;;;;;5033585;28;20021;-62
2021/06/30 05:27:51;;;;;;;34.10;22.60;;;;;;;;;;5033099;28;20056;-61
2021/06/30 05:30:17;;;;;;;29.10;21.02;;;;;;;;;;5050998;28;20013;-62
2021/06/30 05:32:43;;;;;;;25.75;20.63;;;;;;;;;;5033513;28;20583;-60
2021/06/30 05:35:10;;;;;;;27.33;20.77;;;;;;;;;;5051390;28;20031;-62
2021/06/30 05:37:36;;;;;;;23.80;20.80;;;;;;;;;;5051227;28;20036;-60
2021/06/30 05:40:02;;;;;;;24.52;21.27;;;;;;;;;;5051014;28;20055;-61
2021/06/30 05:42:28;;;;;;;23.58;20.38;;;;;;;;;;5032946;28;20036;-61
2021/06/30 05:44:54;;;;;;;26.25;20.08;;;;;;;;;;5050609;28;20038;-61
2021/06/30 05:47:20;;;;;;;25.27;20.75;;;;;;;;;;5033085;28;20039;-63
2021/06/30 05:49:46;;;;;;;24.77;20.50;;;;;;;;;;5050759;28;20163;-63
2021/06/30 05:52:12;;;;;;;23.17;19.80;;;;;;;;;;5050802;28;20481;-62
2021/06/30 05:54:38;;;;;;;28.40;20.05;;;;;;;;;;5050582;28;20020;-62
2021/06/30 05:57:04;;;;;;;23.98;20.17;;;;;;;;;;5032651;28;20057;-62
2021/06/30 05:59:30;;;;;;;25.40;19.88;;;;;;;;;;5050583;28;20474;-63
2021/06/30 06:01:56;;;;;;;23.17;19.58;;;;;;;;;;5034644;28;20071;-62
2021/06/30 06:04:22;;;;;;;23.23;19.30;;;;;;;;;;5053988;28;20044;-62
2021/06/30 06:06:48;;;;;;;22.90;19.40;;;;;;;;;;5036424;28;20473;-62
2021/06/30 06:09:14;;;;;;;24.42;19.48;;;;;;;;;;5053866;28;20364;-62
2021/06/30 06:11:40;;;;;;;23.20;19.65;;;;;;;;;;5054582;28;20025;-63
2021/06/30 06:14:06;;;;;;;24.45;18.30;;;;;;;;;;5054248;28;20495;-63
2021/06/30 06:16:32;;;;;;;22.42;18.63;;;;;;;;;;5053899;28;20029;-62
2021/06/30 06:18:58;;;;;;;23.58;18.67;;;;;;;;;;5053755;28;20021;-62
2021/06/30 06:21:24;;;;;;;20.95;17.92;;;;;;;;;;5053764;28;20033;-63
2021/06/30 06:23:50;;;;;;;21.42;17.50;;;;;;;;;;5035912;28;20040;-62
2021/06/30 06:26:16;;;;;;;20.58;16.90;;;;;;;;;;5053917;28;20393;-63
2021/06/30 06:28:46;;;;;;;20.20;16.73;;;;;;;;;;5054136;28;20488;-62
2021/06/30 06:31:13;;;;;;;22.35;16.10;;;;;;;;;;5054399;28;20025;-62
2021/06/30 06:33:39;;;;;;;23.03;17.07;;;;;;;;;;5053746;28;20023;-62
2021/06/30 06:36:05;;;;;;;21.60;17.80;;;;;;;;;;5036234;28;20404;-62
2021/06/30 06:38:32;;;;;;;20.58;17.02;;;;;;;;;;5054377;28;20441;-61
2021/06/30 06:40:58;;;;;;;23.60;17.42;;;;;;;;;;5054152;28;20449;-63
2021/06/30 06:43:24;;;;;;;22.58;17.02;;;;;;;;;;5075458;22;20412;-62
2021/06/30 06:45:50;;;;;;;21.65;16.98;;;;;;;;;;5032692;28;20452;-60
2021/06/30 06:48:16;;;;;;;22.17;16.75;;;;;;;;;;5053732;28;20033;-61
2021/06/30 06:50:42;;;;;;;23.38;18.48;;;;;;;;;;5036200;28;20021;-61
2021/06/30 06:53:08;;;;;;;22.38;17.85;;;;;;;;;;5029286;28;20040;-61
2021/06/30 06:55:35;;;;;;;25.15;19.15;;;;;;;;;;4996748;28;20022;-63
2021/06/30 06:58:01;;;;;;;24.48;19.38;;;;;;;;;;4997026;28;20034;-61
2021/06/30 07:00:27;;;;;;;26.92;20.95;;;;;;;;;;4996796;28;20076;-61
2021/06/30 07:02:53;;;;;;;28.75;22.90;;;;;;;;;;5029313;28;20064;-61
2021/06/30 07:05:19;;;;;;;28.23;22.27;;;;;;;;;;5033949;28;20420;-60
2021/06/30 07:07:45;;;;;;;26.85;22.15;;;;;;;;;;5016258;28;20128;-60
2021/06/30 07:10:12;;;;;;;32.72;23.15;;;;;;;;;;5027809;28;20032;-61
2021/06/30 07:12:38;;;;;;;28.25;24.08;;;;;;;;;;5015328;28;20030;-61
2021/06/30 07:15:05;;;;;;;31.75;24.65;;;;;;;;;;5033462;28;20032;-60
2021/06/30 07:17:31;;;;;;;29.80;23.63;;;;;;;;;;5016033;28;20093;-61
2021/06/30 07:19:58;;;;;;;33.00;24.83;;;;;;;;;;5018977;28;20026;-59
2021/06/30 07:22:24;;;;;;;32.10;24.95;;;;;;;;;;4996459;28;20113;-61
2021/06/30 07:24:50;;;;;;;30.80;24.23;;;;;;;;;;5001442;28;20515;-61
2021/06/30 07:27:16;;;;;;;28.63;24.35;;;;;;;;;;5015825;28;20037;-61
2021/06/30 07:29:42;;;;;;;29.85;24.55;;;;;;;;;;5015864;28;20500;-61
2021/06/30 07:32:08;;;;;;;29.27;22.88;;;;;;;;;;5015873;28;20033;-61
2021/06/30 07:34:34;;;;;;;27.15;22.08;;;;;;;;;;5015597;28;20033;-61
2021/06/30 07:37:00;;;;;;;25.83;22.48;;;;;;;;;;5015794;28;20021;-61
2021/06/30 07:39:26;;;;;;;26.85;22.35;;;;;;;;;;5015929;28;20083;-61
2021/06/30 07:41:53;;;;;;;26.38;22.67;;;;;;;;;;5015435;28;20048;-61
2021/06/30 07:44:19;;;;;;;26.40;21.05;;;;;;;;;;5032705;28;20041;-61
2021/06/30 07:46:45;;;;;;;25.63;22.10;;;;;;;;;;5014963;28;20482;-62
2021/06/30 07:49:12;;;;;;;28.88;22.60;;;;;;;;;;5015121;28;20017;-62
2021/06/30 07:51:38;;;;;;;24.80;21.52;;;;;;;;;;5015269;28;20026;-62
2021/06/30 07:54:05;;;;;;;24.58;19.50;;;;;;;;;;5032710;28;20021;-62
2021/06/30 07:56:34;;;;;;;23.98;20.00;;;;;;;;;;5032871;28;20477;-62
2021/06/30 07:59:18;;;;;;;25.85;20.02;;;;;;;;;;5032902;28;20053;-61
2021/06/30 08:01:44;;;;;;;23.65;19.63;;;;;;;;;;5015491;28;20033;-62
2021/06/30 08:04:10;;;;;;;24.08;19.75;;;;;;;;;;5032669;28;20025;-60
2021/06/30 08:06:37;;;;;;;24.38;19.25;;;;;;;;;;5015319;28;20033;-61
2021/06/30 08:09:04;;;;;;;25.40;19.33;;;;;;;;;;5014989;28;20504;-61
2021/06/30 08:11:30;;;;;;;24.60;18.92;;;;;;;;;;5032818;28;20026;-62
2021/06/30 08:13:56;;;;;;;24.77;19.63;;;;;;;;;;5032576;28;20060;-61
2021/06/30 08:16:22;;;;;;;24.38;20.40;;;;;;;;;;5012201;28;20040;-62
2021/06/30 08:18:48;;;;;;;25.25;20.50;;;;;;;;;;5022175;28;20108;-61
2021/06/30 08:21:16;;;;;;;24.65;20.08;;;;;;;;;;5030546;28;20033;-61
2021/06/30 08:23:42;;;;;;;23.70;19.23;;;;;;;;;;5032548;28;20071;-63
2021/06/30 08:26:08;;;;;;;24.60;20.77;;;;;;;;;;5014855;28;20136;-61
2021/06/30 08:28:35;;;;;;;25.75;20.23;;;;;;;;;;5031683;28;20041;-61
2021/06/30 08:31:01;;;;;;;24.60;20.35;;;;;;;;;;5032287;28;20014;-62
2021/06/30 08:33:27;;;;;;;24.80;20.38;;;;;;;;;;5032290;28;20049;-62
2021/06/30 08:35:55;;;;;;;23.33;19.15;;;;;;;;;;5032818;28;20428;-62
2021/06/30 08:38:21;;;;;;;24.35;20.60;;;;;;;;;;5032369;28;20034;-62
2021/06/30 08:40:47;;;;;;;25.23;20.98;;;;;;;;;;5032270;28;20030;-62
2021/06/30 08:43:14;;;;;;;25.05;21.05;;;;;;;;;;5032024;28;20393;-62
2021/06/30 08:45:42;;;;;;;23.42;19.73;;;;;;;;;;5014261;28;20029;-67
2021/06/30 08:48:09;;;;;;;23.53;18.17;;;;;;;;;;5014126;28;20053;-66
2021/06/30 08:50:36;;;;;;;23.48;19.08;;;;;;;;;;5032155;28;20048;-66
2021/06/30 08:53:02;;;;;;;24.60;20.37;;;;;;;;;;5014585;28;20079;-66
2021/06/30 08:55:28;;;;;;;24.27;20.58;;;;;;;;;;5031962;28;20029;-65
2021/06/30 08:57:55;;;;;;;22.92;19.27;;;;;;;;;;5014365;28;20132;-66
2021/06/30 09:00:21;;;;;;;25.23;19.80;;;;;;;;;;5014547;28;20025;-66
2021/06/30 09:02:56;;;;;;;23.58;19.38;;;;;;;;;;5014059;28;20131;-66
2021/06/30 09:07:52;;;;;;;24.27;20.17;;;;;;;;;;5012524;28;20037;-64
2021/06/30 09:10:30;;;;;;;24.20;20.10;;;;;;;;;;5012405;28;20034;-63
2021/06/30 09:12:56;;;;;;;25.20;20.17;;;;;;;;;;5012244;28;20159;-63
2021/06/30 09:15:33;;;;;;;25.73;21.83;;;;;;;;;;5012080;28;20393;-64
2021/06/30 09:18:19;;;;;;;27.90;22.63;;;;;;;;;;4995077;28;20482;-62
2021/06/30 09:20:48;;;;;;;27.17;23.02;;;;;;;;;;5013609;28;20117;-64
2021/06/30 09:23:14;;;;;;;25.15;21.70;;;;;;;;;;5013907;28;20026;-64
2021/06/30 09:25:41;;;;;;;25.73;22.70;;;;;;;;;;5030735;28;20108;-63
2021/06/30 09:28:15;;;;;;;25.60;21.45;;;;;;;;;;5031262;28;20025;-62
2021/06/30 09:30:58;;;;;;;23.92;20.58;;;;;;;;;;5031802;28;20025;-64
2021/06/30 09:33:24;;;;;;;22.33;17.58;;;;;;;;;;5013591;28;20479;-62
2021/06/30 09:36:02;;;;;;;22.92;18.90;;;;;;;;;;5031408;28;20136;-63
2021/06/30 09:38:32;;;;;;;24.65;19.42;;;;;;;;;;5017972;28;20029;-63
2021/06/30 09:40:59;;;;;;;24.48;18.17;;;;;;;;;;5035600;28;20029;-61
2021/06/30 09:43:32;;;;;;;30.63;20.23;;;;;;;;;;5034721;28;20025;-64
2021/06/30 09:46:00;;;;;;;23.52;19.80;;;;;;;;;;5025455;28;20109;-62
2021/06/30 09:48:28;;;;;;;26.80;19.98;;;;;;;;;;5033391;28;20029;-63
2021/06/30 09:50:54;;;;;;;;;;;;;;;;;;5015887;28;20022;-63
2021/06/30 09:53:34;;;;;;;23.02;18.52;;;;;;;;;;5015750;28;19932;-64
2021/06/30 09:56:13;;;;;;;26.65;18.98;;;;;;;;;;5032892;28;20049;-63
2021/06/30 09:58:40;;;;;;;21.90;18.33;;;;;;;;;;5033265;28;20297;-64
2021/06/30 10:01:16;;;;;;;22.17;17.67;;;;;;;;;;5033341;28;20444;-63
2021/06/30 10:03:42;;;;;;;23.20;17.05;;;;;;;;;;5017246;28;20014;-64
2021/06/30 10:06:23;;;;;;;22.02;17.17;;;;;;;;;;5017187;28;20120;-64
2021/06/30 10:08:49;;;;;;;22.17;18.55;;;;;;;;;;5034860;28;20033;-64
2021/06/30 10:11:15;;;;;;;22.48;18.08;;;;;;;;;;5017044;28;20024;-63
2021/06/30 10:13:41;;;;;;;21.95;17.55;;;;;;;;;;5034959;28;20043;-64
2021/06/30 10:16:08;;;;;;;23.40;18.55;;;;;;;;;;5016386;28;20387;-63
2021/06/30 10:18:34;;;;;;;23.58;18.70;;;;;;;;;;5034678;28;20035;-63
2021/06/30 10:21:00;;;;;;;23.65;18.63;;;;;;;;;;5017527;28;20183;-64
2021/06/30 10:23:30;;;;;;;23.23;19.05;;;;;;;;;;5035223;28;20035;-64
2021/06/30 10:25:56;;;;;;;23.23;18.08;;;;;;;;;;5017032;28;20037;-63
2021/06/30 10:28:22;;;;;;;25.80;20.17;;;;;;;;;;5016774;28;20394;-61
2021/06/30 10:30:52;;;;;;;22.02;17.15;;;;;;;;;;5017159;28;20120;-64
2021/06/30 10:33:38;;;;;;;21.45;16.40;;;;;;;;;;5016861;28;20393;-64
2021/06/30 10:36:07;;;;;;;24.15;16.95;;;;;;;;;;5034378;28;20017;-62
2021/06/30 10:38:51;;;;;;;21.75;17.13;;;;;;;;;;5016753;28;20631;-63
2021/06/30 10:41:37;;;;;;;21.70;16.38;;;;;;;;;;5034651;28;20022;-61
2021/06/30 10:44:14;;;;;;;19.80;15.30;;;;;;;;;;5003105;28;20122;-61
2021/06/30 10:46:40;;;;;;;23.83;16.30;;;;;;;;;;5027567;28;20026;-63
2021/06/30 10:49:26;;;;;;;21.00;15.10;;;;;;;;;;4673650;28;9999994;-62
2021/06/30 10:51:53;;;;;;;20.67;15.05;;;;;;;;;;5022484;28;20040;-61
2021/06/30 10:54:40;;;;;;;20.15;15.32;;;;;;;;;;5019121;28;20581;-63
2021/06/30 10:57:24;;;;;;;19.45;13.82;;;;;;;;;;5023350;28;20085;-63
2021/06/30 11:00:05;;;;;;;19.42;13.95;;;;;;;;;;5003619;28;20578;-63
2021/06/30 11:02:33;;;;;;;18.42;13.68;;;;;;;;;;5015483;28;20135;-61
2021/06/30 11:05:14;;;;;;;19.45;12.48;;;;;;;;;;4998499;28;20402;-63
2021/06/30 11:07:41;;;;;;;18.48;12.00;;;;;;;;;;5021685;28;20382;-62
2021/06/30 11:10:16;;;;;;;16.85;11.98;;;;;;;;;;5007452;28;20018;-63
2021/06/30 11:12:55;;;;;;;16.33;11.32;;;;;;;;;;5030617;28;20071;-64
2021/06/30 11:15:39;;;;;;;15.90;10.82;;;;;;;;;;5031157;28;20025;-65
2021/06/30 11:18:11;;;;;;;15.98;11.02;;;;;;;;;;5030853;28;20021;-63
2021/06/30 11:20:47;;;;;;;16.30;10.95;;;;;;;;;;5031465;28;20485;-63
2021/06/30 11:23:36;;;;;;;15.65;10.93;;;;;;;;;;5031575;28;20125;-61
2021/06/30 11:26:22;;;;;;;16.27;10.82;;;;;;;;;;5030377;28;20025;-62
2021/06/30 11:28:48;;;;;;;16.13;10.77;;;;;;;;;;5026414;28;20036;-61
2021/06/30 11:31:26;;;;;;;15.57;10.93;;;;;;;;;;4660863;28;10000537;-63
2021/06/30 11:34:21;;;;;;;15.57;10.68;;;;;;;;;;5016201;28;20261;-63
2021/06/30 11:36:47;;;;;;;15.88;10.65;;;;;;;;;;5013349;28;20441;-62
2021/06/30 11:39:16;;;;;;;15.65;11.00;;;28.00;97.80;;;;;;4996163;28;20026;-63
2021/06/30 11:41:50;;;;;;;15.57;11.32;;;23.40;99.90;;;;;;4995774;28;20053;-64
2021/06/30 11:44:19;;;;;;;15.45;11.10;;;;;;;;;;5013063;28;20037;-63
2021/06/30 11:46:45;;;;;;;;;;;;;;;;;;5038003;28;20067;-63
2021/06/30 11:49:11;;;;;;;16.50;12.18;;;;;;;;;;5021900;28;20000;-63
2021/06/30 11:51:38;;;;;;;17.00;12.57;;;;;;;;;;5003076;28;20033;-61
2021/06/30 11:54:12;;;;;;;16.02;12.40;;;;;;;;;;4995639;28;20022;-62
2021/06/30 11:56:39;;;;;;;17.20;11.85;;;;;;;;;;4996262;28;20037;-60
2021/06/30 11:59:07;;;;;;;15.85;11.48;;;;;;;;;;4995263;28;20030;-61
2021/06/30 12:01:37;;;;;;;16.15;11.48;;;;;;;;;;4995477;28;20018;-61
2021/06/30 12:04:12;;;;;;;16.00;11.48;;;;;;;;;;5012989;28;20037;-60
2021/06/30 12:06:39;;;;;;;16.25;12.00;;;;;;;;;;4995301;28;20030;-59
2021/06/30 12:09:09;;;;;;;15.43;11.40;;;;;;;;;;5012692;28;20029;-60
2021/06/30 12:11:36;;;;;;;16.13;12.55;;;;;;;;;;5012909;28;20022;-61
2021/06/30 12:14:28;;;;;;;17.63;12.38;;;;;;;;;;5012800;28;20038;-61
2021/06/30 12:16:55;;;;;;;16.30;12.63;;;;;;;;;;4998346;28;20033;-60
2021/06/30 12:19:38;;;;;;;16.10;11.65;;;;;;;;;;5003798;28;20100;-62
2021/06/30 12:22:24;;;;;;;16.98;12.27;;;;;;;;;;5012516;28;20029;-59
2021/06/30 12:24:52;;;;;;;15.93;11.52;;;;;;;;;;5013340;28;20492;-61
2021/06/30 12:27:18;;;;;;;15.47;11.23;;;;;;;;;;5020087;28;20130;-62
2021/06/30 12:29:44;;;;;;;15.57;11.75;;;;;;;;;;5003220;28;20752;-63
2021/06/30 12:32:12;;;;;;;15.40;11.93;;;;;;;;;;5009210;28;20021;-62
2021/06/30 12:34:39;;;;;;;15.88;12.30;;;;;;;;;;5007442;28;20021;-62
2021/06/30 12:37:05;;;;;;;17.45;12.10;;;;;;;;;;5006183;28;20498;-62
2021/06/30 12:39:32;;;;;;;15.70;11.75;;;;;;;;;;5006583;28;20056;-62
2021/06/30 12:42:07;;;;;;;16.17;12.68;;;;;;;;;;4953508;28;10001268;-61
2021/06/30 12:44:52;;;;;;;16.02;12.88;;;;;;;;;;5037343;28;20649;-61
2021/06/30 12:47:18;;;;;;;16.00;13.13;;;;;;;;;;5019898;28;20037;-61
2021/06/30 12:49:55;;;;;;;16.10;12.55;;;;;;;;;;5049656;23;20040;-61
2021/06/30 12:52:22;;;;;;;16.20;12.35;;;;;;;;;;5091300;28;20024;-61
2021/06/30 12:55:01;;;;;;;17.08;12.88;;;;;;;;;;5068991;28;20028;-61
2021/06/30 12:57:27;;;;;;;16.15;12.80;;;;;;;;;;5052866;28;20019;-61
2021/06/30 13:00:08;;;;;;;16.02;12.60;;;;;;;;;;5046215;28;20021;-58
2021/06/30 13:02:34;;;;;;;17.15;12.65;;;;;;;;;;5039893;28;20074;-57
2021/06/30 13:05:19;;;;;;;16.55;12.10;;;;;;;;;;5060464;28;20668;-60
2021/06/30 13:07:45;;;;;;;15.48;12.23;;;;;;;;;;4700411;28;9999721;-61
2021/06/30 13:10:18;;;;;;;16.90;12.82;;;;;;;;;;5049283;28;20089;-61
2021/06/30 13:12:44;;;;;;;16.45;12.00;;;;;;;;;;5048694;28;20032;-61
2021/06/30 13:15:23;;;;;;;15.45;11.90;;;;;;;;;;5048601;28;20021;-61
2021/06/30 13:17:49;;;;;;;16.52;12.73;;;;;;;;;;5030484;28;20035;-60
2021/06/30 13:20:15;;;;;;;17.15;12.65;;;;;;;;;;5048145;28;20024;-62
2021/06/30 13:22:46;;;;;;;16.48;12.60;;;;;;;;;;5046945;28;20350;-61
2021/06/30 13:25:17;;;;;;;16.70;12.30;;;;;;;;;;5047770;28;20021;-62
2021/06/30 13:35:40;;;;;;;17.45;13.57;;;;;;;;;;5048871;28;20578;-60
2021/06/30 13:38:10;;;;;;;17.60;13.18;;;;;;;;;;5049334;28;20083;-58
2021/06/30 13:40:38;;;;;;;16.90;12.88;;;;;;;;;;5031840;28;20033;-61
2021/06/30 13:43:05;;;;;;;17.83;13.48;;;;;;;;;;5032676;28;20033;-60
2021/06/30 13:45:39;;;;;;;16.60;13.13;;;;;;;;;;5032687;28;20017;-60
2021/06/30 13:48:06;;;;;;;16.80;13.23;;;;;;;;;;5051192;28;20029;-60
2021/06/30 13:50:34;;;;;;;18.10;13.68;;;;;;;;;;5050863;28;20041;-61
2021/06/30 13:53:00;;;;;;;18.27;13.57;;;;;;;;;;5050826;28;20499;-60
2021/06/30 13:55:26;;;;;;;18.08;13.45;;;;;;;;;;5050744;28;20037;-59
2021/06/30 13:57:53;;;;;;;16.65;12.30;;;;;;;;;;5032816;28;20094;-58
2021/06/30 14:00:19;;;;;;;16.52;12.75;;;;;;;;;;5050819;28;20096;-60
2021/06/30 14:02:45;;;;;;;22.38;13.57;;;;;;;;;;5050372;28;20033;-58
2021/06/30 14:05:11;;;;;;;16.40;13.02;;;;;;;;;;5050176;28;20443;-60
2021/06/30 14:07:37;;;;;;;16.77;13.25;;;;;;;;;;5050220;28;20045;-58
2021/06/30 14:10:03;;;;;;;16.80;13.80;;;;;;;;;;5050488;28;20033;-58
2021/06/30 14:12:30;;;;;;;16.50;13.50;;;;;;;;;;5050776;28;20385;-59
2021/06/30 14:14:56;;;;;;;17.77;14.32;;;;;;;;;;5050528;28;20025;-59
2021/06/30 14:17:22;;;;;;;17.55;14.18;;;;;;;;;;5050417;28;20048;-59
2021/06/30 14:19:48;;;;;;;17.80;13.25;;;;;;;;;;5050616;28;20013;-59
2021/06/30 14:22:22;;;;;;;17.55;12.82;;;;;;;;;;5051661;28;20035;-60
2021/06/30 14:24:49;;;;;;;17.00;12.88;;;;;;;;;;5036404;28;20021;-57
2021/06/30 14:27:21;;;;;;;17.33;13.63;;;;;;;;;;5036363;28;20464;-58
2021/06/30 14:29:47;;;;;;;18.05;13.25;;;;;;;;;;5054011;28;20064;-58
2021/06/30 14:32:13;;;;;;;18.48;14.43;;;;;;;;;;5050620;28;20419;-60